MROCSKCG

Guest
Details From MROC - San Jose Juan Santamaria Intl
To SKCG - RAFAEL NUNEZ
Flight Number -
Tags generated
Created
Modified
Stats Distance 547 nm / 1,013 km
Max Altitude 35,000 ft / 10,668 m
Waypoints 10
Social Downloads 1
Likes 0
Share VATSIM

Download

Looking for another format? Having issues loading an existing format? Contact us
Advertisement - Login to hide

Notes

Basic altitude profile: - Ascent Rate: 2500ft/min - Ascent Speed: 250kts - Cruise Altitude: 35000ft - Cruise Speed: 420kts - Descent Rate: 1500ft/min - Descent Speed: 250kts Options: - Use NATs: yes - Use PACOTS: yes - Use low airways: yes - Use high airways: yes

Route

MROC CACHI G440 ISEBA UG440 TBG UA574 BOGAL A574 DETOK SKCG

ID Type Via Altitude Latitude Longitude Leg Dist Tot Dist Heading (true) Name
O MROC APT - 0 ft / 0 m 9.99393˚ -84.20888˚ - 0 nm - San Jose Juan Santamaria Intl
CACHI FIX - 9,200 ft / 2,804 m 9.81944˚ -83.75694˚ 28 nm 28 nm 111° / 111° -
ISEBA FIX G440 (AWY-LO) 19,500 ft / 5,944 m 9.54128˚ -82.86986˚ 55 nm 83 nm 108° / 108° -
BDT VOR UG440 (AWY-HI) 35,000 ft / 10,668 m 9.33886˚ -82.25175˚ 38 nm 122 nm 108° / 108° BOCAS DEL TORO VOR-DME
PUDOS FIX UG440 (AWY-HI) 35,000 ft / 10,668 m 9.08381˚ -81.04814˚ 72 nm 195 nm 102° / 102° -
TBG DME UG440 (AWY-HI) 35,000 ft / 10,668 m 8.78757˚ -79.56202˚ 89 nm 285 nm 101° / 102° TABOGA ISLAND VOR-DME
PONPO FIX UA574 (AWY-HI) 35,000 ft / 10,668 m 9.27011˚ -78.19944˚ 85 nm 371 nm 70° / 70° -
BOGAL FIX UA574 (AWY-HI) 25,900 ft / 7,894 m 9.56794˚ -77.41642˚ 49 nm 420 nm 69° / 69° -
DETOK FIX A574 (AWY-LO) 8,600 ft / 2,621 m 10.02306˚ -76.04667˚ 85 nm 506 nm 71° / 71° -
O SKCG APT - 0 ft / 0 m 10.44238˚ -75.51296˚ 40 nm 546 nm 51° / 51° RAFAEL NUNEZ

Altitude Profile

Advertisement - Login to hide

Weather


0- 5 10 15 20 25 30 35+ Temperature / ° C

Clouds and Precipitation
Forecast for 2018-05-20 18:00 UTC. Updated 3 hours ago

Ground ~20,000 ft ~40,000 ft Winds

MROC

Details ICAO MROC (SJO)
Name San Jose Juan Santamaria Intl
Region Costa Rica
Timezone America/Costa_Rica (UTC-6.0)
Stats Elevation 3,021 ft / 921 m (AMSL)
Location 9.993927° -84.208884°
Runways 1
Magnetic Variation 1.781° W

METAR

MROC 201900Z 26010KT 9999 FEW020 SCT035 BKN200 25/21 A2998 NOSIG

Decode

TAF

TAF MROC 201700Z 2018/2118 27012KT 9999 SCT030 TX27/2018Z TN19/2110Z TEMPO 2020/2023 SHRA SCT015TCU BKN030 TEMPO 2100/2104 VRB02KT 5000 DZ BR FEW001 BKN010 BECMG 2104/2106 06006KT FEW035

Decode

Departure Runways

ID Width Length Bearing (true) Bearing (mag) Surface Threshold Offset Overrun Length
07 151 ft / 46 m 9,994 ft / 3,046 m 68.91° 70.69° Asphalt 0 ft / 0 m 200 ft / 61 m
25 151 ft / 46 m 9,994 ft / 3,046 m 248.92° 250.70° Asphalt 1,969 ft / 600 m 200 ft / 61 m

SKCG

Details ICAO SKCG (CTG)
Name RAFAEL NUNEZ
Region Colombia
Timezone America/Bogota (UTC-5.0)
Stats Elevation 4 ft / 1 m (AMSL)
Location 10.442379° -75.512961°
Runways 1
Magnetic Variation 7.261° W

METAR

SKCG 201900Z 26012KT 9999 FEW025 31/25 A2979 METAR SKBQ 201900Z 21008KT 110V250 9999 SCT015 32/25 A2978

Decode

TAF

Not found

Destination Runways

ID Width Length Bearing (true) Bearing (mag) Surface Threshold Offset Overrun Length
01 148 ft / 45 m 8,584 ft / 2,616 m 2.31° 9.57° Asphalt 0 ft / 0 m 180 ft / 55 m
19 148 ft / 45 m 8,584 ft / 2,616 m 182.31° 189.57° Asphalt 190 ft / 58 m 0 ft / 0 m

Popular Alternatives